Time;durP1;ratioP1;P1;durP2;ratioP2;P2;SDS_P1;SDS_P2;PMS_P1;PMS_P2;Temp;Humidity;BMP_temperature;BMP_pressure;BME280_temperature;BME280_humidity;BME280_pressure;Samples;Min_cycle;Max_cycle;Signal;HPM_P1;HPM_P2
2023/07/08 00:02:11;;;;;;;7.13;5.50;;;;;;;;;;5093265;28;20458;-74
2023/07/08 00:04:38;;;;;;;15.60;7.03;;;;;;;;;;5093078;28;20482;-74
2023/07/08 00:07:06;;;;;;;8.47;6.00;;;;;;;;;;5092984;28;20969;-73
2023/07/08 00:09:33;;;;;;;7.00;5.40;;;;;;;;;;5093126;28;20442;-73
2023/07/08 00:12:00;;;;;;;9.10;5.37;;;;;;;;;;5091777;28;20479;-73
2023/07/08 00:14:28;;;;;;;7.30;6.17;;;;;;;;;;5093001;28;20458;-74
2023/07/08 00:16:55;;;;;;;11.50;5.87;;;;;;;;;;5092877;28;20451;-73
2023/07/08 00:19:23;;;;;;;6.33;5.70;;;;;;;;;;5092849;28;20450;-73
2023/07/08 00:21:52;;;;;;;8.30;6.00;;;;;;;;;;5092959;28;20474;-73
2023/07/08 00:24:19;;;;;;;7.67;5.50;;;;;;;;;;5092825;28;20921;-73
2023/07/08 00:26:46;;;;;;;8.87;6.40;;;;;;;;;;5093055;28;20954;-74
2023/07/08 00:29:13;;;;;;;10.37;6.33;;;;;;;;;;5092940;28;20453;-74
2023/07/08 00:31:42;;;;;;;8.00;6.80;;;;;;;;;;5092896;28;20471;-74
2023/07/08 00:34:09;;;;;;;7.60;6.57;;;;;;;;;;5093052;28;20931;-74
2023/07/08 00:36:36;;;;;;;9.57;7.17;;;;;;;;;;5092809;28;20446;-74
2023/07/08 00:39:03;;;;;;;7.47;6.20;;;;;;;;;;5092735;28;20495;-74
2023/07/08 00:41:31;;;;;;;9.63;6.10;;;;;;;;;;5092793;28;20482;-74
2023/07/08 00:43:59;;;;;;;7.27;5.17;;;;;;;;;;5092776;28;20839;-74
2023/07/08 00:46:31;;;;;;;5.30;4.77;;;;;;;;;;5092638;28;20830;-74
2023/07/08 00:49:03;;;;;;;7.17;6.00;;;;;;;;;;5092793;28;20446;-74
2023/07/08 00:51:30;;;;;;;7.13;5.70;;;;;;;;;;5092574;28;20475;-74
2023/07/08 00:53:57;;;;;;;7.23;5.73;;;;;;;;;;5092619;28;20443;-74
2023/07/08 00:56:27;;;;;;;11.87;6.30;;;;;;;;;;5092712;28;20442;-74
2023/07/08 00:58:56;;;;;;;8.70;6.13;;;;;;;;;;5092707;28;20481;-74
2023/07/08 01:01:23;;;;;;;14.90;6.43;;;;;;;;;;5092451;28;21075;-73
2023/07/08 01:03:52;;;;;;;15.50;6.30;;;;;;;;;;5092652;28;20830;-73
2023/07/08 01:06:22;;;;;;;8.30;6.20;;;;;;;;;;5092647;28;20795;-73
2023/07/08 01:08:52;;;;;;;9.90;6.60;;;;;;;;;;5092497;28;20451;-73
2023/07/08 01:11:21;;;;;;;7.10;5.63;;;;;;;;;;5092505;28;20508;-73
2023/07/08 01:13:50;;;;;;;7.73;5.47;;;;;;;;;;5092156;28;20472;-73
2023/07/08 01:16:17;;;;;;;8.43;5.13;;;;;;;;;;5092683;28;20466;-73
2023/07/08 01:18:52;;;;;;;7.07;4.40;;;;;;;;;;5092312;28;20454;-73
2023/07/08 01:21:32;;;;;;;9.00;5.60;;;;;;;;;;5092505;28;20493;-73
2023/07/08 01:24:01;;;;;;;10.70;5.30;;;;;;;;;;5095583;28;20446;-73
2023/07/08 01:26:28;;;;;;;7.00;5.67;;;;;;;;;;5096118;28;20453;-73
2023/07/08 01:28:56;;;;;;;10.33;5.50;;;;;;;;;;5095962;28;20931;-73
2023/07/08 01:31:24;;;;;;;7.60;5.07;;;;;;;;;;5096071;28;20482;-73
2023/07/08 01:33:51;;;;;;;8.23;5.57;;;;;;;;;;5096148;28;20974;-73
2023/07/08 01:36:19;;;;;;;15.73;5.40;;;;;;;;;;5096147;28;20486;-74
2023/07/08 01:38:46;;;;;;;8.27;6.23;;;;;;;;;;5095941;28;20936;-74
2023/07/08 01:41:16;;;;;;;9.00;5.40;;;;;;;;;;5095968;28;20830;-74
2023/07/08 01:43:43;;;;;;;11.07;5.90;;;;;;;;;;5095863;28;20454;-74
2023/07/08 01:46:13;;;;;;;9.57;5.53;;;;;;;;;;5095950;28;20482;-74
2023/07/08 01:48:41;;;;;;;8.07;6.50;;;;;;;;;;5095550;28;20448;-73
2023/07/08 01:51:09;;;;;;;6.93;5.30;;;;;;;;;;5095648;28;20471;-74
2023/07/08 01:53:36;;;;;;;7.70;6.00;;;;;;;;;;5095484;28;20446;-74
2023/07/08 01:56:04;;;;;;;9.83;5.90;;;;;;;;;;5095922;28;20823;-74
2023/07/08 01:58:32;;;;;;;7.97;5.30;;;;;;;;;;5095267;28;20451;-73
2023/07/08 02:01:00;;;;;;;7.43;6.00;;;;;;;;;;5095747;28;20478;-73
2023/07/08 02:03:27;;;;;;;8.43;5.70;;;;;;;;;;5095528;28;20447;-74
2023/07/08 02:05:54;;;;;;;7.43;5.47;;;;;;;;;;5095426;28;20490;-74
2023/07/08 02:08:21;;;;;;;9.27;5.50;;;;;;;;;;5095385;28;20496;-74
2023/07/08 02:10:50;;;;;;;6.67;5.37;;;;;;;;;;5095459;28;20838;-74
2023/07/08 02:13:17;;;;;;;7.70;5.50;;;;;;;;;;5094899;28;20447;-74
2023/07/08 02:15:46;;;;;;;7.50;5.40;;;;;;;;;;5095351;28;20927;-74
2023/07/08 02:18:13;;;;;;;6.60;5.57;;;;;;;;;;5095158;28;20469;-74
2023/07/08 02:20:40;;;;;;;7.97;5.17;;;;;;;;;;5094864;28;20482;-74
2023/07/08 02:23:07;;;;;;;8.70;6.53;;;;;;;;;;5095400;28;20847;-74
2023/07/08 02:25:34;;;;;;;7.77;5.60;;;;;;;;;;5094999;28;20523;-74
2023/07/08 02:28:01;;;;;;;6.87;6.17;;;;;;;;;;5095073;28;20446;-74
2023/07/08 02:30:28;;;;;;;11.83;5.53;;;;;;;;;;5094900;28;20470;-74
2023/07/08 02:32:57;;;;;;;7.23;5.57;;;;;;;;;;5095210;28;20454;-74
2023/07/08 02:35:25;;;;;;;8.23;6.70;;;;;;;;;;5094208;28;20843;-73
2023/07/08 02:37:52;;;;;;;9.00;6.03;;;;;;;;;;5094821;28;20490;-73
2023/07/08 02:40:19;;;;;;;8.40;5.90;;;;;;;;;;5094853;28;20470;-73
2023/07/08 02:42:46;;;;;;;8.17;6.77;;;;;;;;;;5094949;28;20964;-73
2023/07/08 02:45:14;;;;;;;9.30;5.53;;;;;;;;;;5094995;28;20482;-73
2023/07/08 02:47:41;;;;;;;9.40;6.17;;;;;;;;;;5094376;28;20478;-73
2023/07/08 02:50:10;;;;;;;6.00;5.07;;;;;;;;;;5094731;28;20474;-74
2023/07/08 02:52:37;;;;;;;12.10;5.90;;;;;;;;;;5094600;28;20451;-74
2023/07/08 02:55:05;;;;;;;8.23;6.57;;;;;;;;;;5094653;28;20443;-74
2023/07/08 02:57:32;;;;;;;8.43;5.57;;;;;;;;;;5094268;28;20939;-74
2023/07/08 02:59:59;;;;;;;9.80;5.90;;;;;;;;;;5094517;28;20954;-74
2023/07/08 03:02:27;;;;;;;7.00;5.37;;;;;;;;;;5094252;28;20451;-74
2023/07/08 03:04:58;;;;;;;7.47;5.40;;;;;;;;;;5094110;28;20493;-74
2023/07/08 03:07:27;;;;;;;9.67;5.90;;;;;;;;;;5093952;28;20454;-74
2023/07/08 03:09:54;;;;;;;8.70;6.00;;;;;;;;;;5094126;28;20500;-74
2023/07/08 03:12:21;;;;;;;12.47;6.43;;;;;;;;;;5093088;28;20568;-74
2023/07/08 03:14:48;;;;;;;16.93;7.83;;;;;;;;;;5093761;28;20439;-74
2023/07/08 03:17:17;;;;;;;25.57;10.10;;;;;;;;;;5093520;28;20447;-74
2023/07/08 03:19:44;;;;;;;17.50;9.43;;;;;;;;;;5093393;28;20811;-74
2023/07/08 03:22:12;;;;;;;18.10;9.07;;;;;;;;;;5093604;28;20451;-74
2023/07/08 03:24:45;;;;;;;13.20;7.97;;;;;;;;;;5093432;28;21023;-74
2023/07/08 03:27:12;;;;;;;10.67;8.53;;;;;;;;;;5093093;28;20450;-74
2023/07/08 03:29:39;;;;;;;12.47;6.77;;;;;;;;;;5093403;28;20462;-74
2023/07/08 03:32:08;;;;;;;7.90;6.10;;;;;;;;;;5093363;28;20485;-74
2023/07/08 03:34:35;;;;;;;8.50;6.20;;;;;;;;;;5093228;28;20485;-74
2023/07/08 03:37:02;;;;;;;10.80;6.27;;;;;;;;;;5093258;28;20861;-74
2023/07/08 03:39:31;;;;;;;8.00;5.63;;;;;;;;;;5093138;28;20829;-74
2023/07/08 03:42:00;;;;;;;8.57;6.20;;;;;;;;;;5093207;28;20801;-74
2023/07/08 03:44:27;;;;;;;11.80;5.53;;;;;;;;;;5093240;28;20458;-74
2023/07/08 03:46:54;;;;;;;10.50;6.40;;;;;;;;;;5093162;28;20821;-74
2023/07/08 03:49:23;;;;;;;9.33;5.60;;;;;;;;;;5093241;28;20529;-74
2023/07/08 03:51:51;;;;;;;8.80;5.30;;;;;;;;;;5093105;28;20852;-74
2023/07/08 03:54:19;;;;;;;9.90;5.47;;;;;;;;;;5093006;28;20459;-74
2023/07/08 03:56:46;;;;;;;7.73;5.77;;;;;;;;;;5092803;28;20453;-74
2023/07/08 03:59:14;;;;;;;7.07;5.73;;;;;;;;;;5093032;28;20450;-74
2023/07/08 04:01:42;;;;;;;10.40;5.67;;;;;;;;;;5092766;28;20462;-74
2023/07/08 04:04:11;;;;;;;5.70;5.10;;;;;;;;;;5092766;28;20449;-74
2023/07/08 04:06:38;;;;;;;7.13;5.27;;;;;;;;;;5092605;28;20586;-74
2023/07/08 04:09:06;;;;;;;7.30;5.87;;;;;;;;;;5092713;28;20462;-74
2023/07/08 04:11:36;;;;;;;10.73;6.00;;;;;;;;;;5092457;28;20890;-74
2023/07/08 04:14:03;;;;;;;8.10;5.80;;;;;;;;;;5092584;28;20450;-74
2023/07/08 04:16:33;;;;;;;8.37;6.03;;;;;;;;;;5092519;28;20443;-74
2023/07/08 04:19:01;;;;;;;9.63;6.60;;;;;;;;;;5092590;28;20447;-74
2023/07/08 04:21:30;;;;;;;9.80;5.37;;;;;;;;;;5092482;28;20500;-72
2023/07/08 04:23:57;;;;;;;8.57;5.90;;;;;;;;;;5092773;28;20951;-74
2023/07/08 04:26:24;;;;;;;8.97;5.57;;;;;;;;;;5092527;28;21017;-73
2023/07/08 04:28:51;;;;;;;7.80;4.87;;;;;;;;;;5092740;28;20583;-74
2023/07/08 04:31:18;;;;;;;5.63;5.10;;;;;;;;;;5092476;28;20462;-74
2023/07/08 04:33:47;;;;;;;12.03;5.67;;;;;;;;;;5092453;28;20450;-74
2023/07/08 04:36:14;;;;;;;7.73;5.07;;;;;;;;;;5092534;28;20443;-74
2023/07/08 04:38:46;;;;;;;8.43;5.27;;;;;;;;;;5092283;28;20475;-73
2023/07/08 04:41:13;;;;;;;6.33;5.17;;;;;;;;;;5092562;28;20959;-74
2023/07/08 04:43:41;;;;;;;7.60;5.90;;;;;;;;;;5092608;28;20482;-74
2023/07/08 04:46:16;;;;;;;6.33;5.60;;;;;;;;;;5092258;28;20493;-73
2023/07/08 04:48:43;;;;;;;7.40;5.03;;;;;;;;;;5092111;28;20458;-74
2023/07/08 04:51:12;;;;;;;8.53;5.80;;;;;;;;;;5092425;28;20494;-74
2023/07/08 04:53:39;;;;;;;6.20;5.43;;;;;;;;;;5091923;28;20454;-73
2023/07/08 04:56:06;;;;;;;15.53;6.30;;;;;;;;;;5092422;28;20466;-74
2023/07/08 04:58:33;;;;;;;6.57;5.47;;;;;;;;;;5094769;28;20504;-74
2023/07/08 05:01:01;;;;;;;8.20;5.53;;;;;;;;;;5096190;28;20478;-74
2023/07/08 05:03:28;;;;;;;5.50;5.00;;;;;;;;;;5096153;28;20450;-75
2023/07/08 05:05:55;;;;;;;8.70;5.17;;;;;;;;;;5096163;28;20512;-75
2023/07/08 05:08:23;;;;;;;6.40;5.50;;;;;;;;;;5095880;28;20447;-75
2023/07/08 05:10:50;;;;;;;8.73;4.63;;;;;;;;;;5096110;28;20482;-75
2023/07/08 05:13:17;;;;;;;11.07;5.10;;;;;;;;;;5095821;28;20454;-75
2023/07/08 05:15:44;;;;;;;11.87;5.67;;;;;;;;;;5096098;28;20449;-75
2023/07/08 05:18:11;;;;;;;12.23;6.63;;;;;;;;;;5096250;28;20450;-75
2023/07/08 05:20:39;;;;;;;7.43;5.33;;;;;;;;;;5095765;28;20485;-73
2023/07/08 05:23:06;;;;;;;11.03;6.87;;;;;;;;;;5096225;28;20454;-73
2023/07/08 05:25:34;;;;;;;9.40;6.07;;;;;;;;;;5095530;28;20493;-72
2023/07/08 05:28:01;;;;;;;8.97;6.63;;;;;;;;;;5092937;28;20455;-73
2023/07/08 05:30:28;;;;;;;7.97;6.17;;;;;;;;;;5074799;28;20494;-73
2023/07/08 05:32:55;;;;;;;8.70;5.67;;;;;;;;;;5075336;28;20538;-73
2023/07/08 05:35:24;;;;;;;7.57;6.20;;;;;;;;;;5075080;28;20955;-73
2023/07/08 05:37:51;;;;;;;5.80;5.13;;;;;;;;;;5075077;28;20455;-74
2023/07/08 05:40:18;;;;;;;7.33;5.63;;;;;;;;;;5075056;28;20467;-74
2023/07/08 05:42:46;;;;;;;7.17;5.67;;;;;;;;;;5074926;28;20459;-74
2023/07/08 05:45:14;;;;;;;6.07;5.17;;;;;;;;;;5074948;28;20455;-74
2023/07/08 05:47:41;;;;;;;10.03;6.20;;;;;;;;;;5074784;28;20832;-73
2023/07/08 05:50:08;;;;;;;6.13;5.27;;;;;;;;;;5074975;28;20494;-74
2023/07/08 05:52:35;;;;;;;6.90;5.30;;;;;;;;;;5074911;28;20446;-74
2023/07/08 05:55:02;;;;;;;7.70;5.67;;;;;;;;;;5074906;28;20815;-74
2023/07/08 05:57:29;;;;;;;7.53;5.93;;;;;;;;;;5074883;28;20448;-73
2023/07/08 05:59:58;;;;;;;6.57;5.30;;;;;;;;;;5074774;28;20456;-73
2023/07/08 06:02:26;;;;;;;9.53;6.70;;;;;;;;;;5074749;28;20948;-73
2023/07/08 06:04:53;;;;;;;7.77;5.77;;;;;;;;;;5074703;28;20451;-73
2023/07/08 06:07:20;;;;;;;8.30;5.97;;;;;;;;;;5074199;28;20496;-73
2023/07/08 06:09:47;;;;;;;6.17;5.53;;;;;;;;;;5073080;28;20494;-73
2023/07/08 06:12:14;;;;;;;9.47;6.00;;;;;;;;;;5074506;28;20515;-73
2023/07/08 06:14:42;;;;;;;8.10;5.20;;;;;;;;;;5074414;28;20859;-73
2023/07/08 06:17:10;;;;;;;8.07;5.63;;;;;;;;;;5074217;28;20912;-73
2023/07/08 06:19:37;;;;;;;7.13;5.73;;;;;;;;;;5074280;28;20467;-73
2023/07/08 06:22:05;;;;;;;12.23;5.50;;;;;;;;;;5074092;28;20471;-73
2023/07/08 06:24:32;;;;;;;9.20;5.43;;;;;;;;;;5074286;28;20496;-73
2023/07/08 06:26:59;;;;;;;11.37;5.13;;;;;;;;;;5074162;28;20487;-73
2023/07/08 06:29:26;;;;;;;7.07;6.33;;;;;;;;;;5074017;28;20451;-73
2023/07/08 06:31:54;;;;;;;12.37;5.67;;;;;;;;;;5074266;28;21003;-73
2023/07/08 06:34:23;;;;;;;7.53;5.10;;;;;;;;;;5073991;28;20459;-73
2023/07/08 06:36:50;;;;;;;7.33;6.40;;;;;;;;;;5073849;28;20448;-72
2023/07/08 06:39:18;;;;;;;8.80;5.47;;;;;;;;;;5073723;28;20455;-71
2023/07/08 06:41:45;;;;;;;6.77;6.03;;;;;;;;;;5089323;28;20466;-72
2023/07/08 06:44:12;;;;;;;7.57;5.00;;;;;;;;;;5094079;28;20854;-71
2023/07/08 06:46:39;;;;;;;6.00;4.47;;;;;;;;;;5093812;28;20482;-73
2023/07/08 06:49:08;;;;;;;7.77;5.47;;;;;;;;;;5093694;28;20454;-73
2023/07/08 06:51:37;;;;;;;7.30;5.20;;;;;;;;;;5093408;28;20565;-73
2023/07/08 06:54:10;;;;;;;7.23;5.20;;;;;;;;;;5093780;28;20954;-73
2023/07/08 06:56:39;;;;;;;8.30;5.90;;;;;;;;;;5093973;28;20489;-73
2023/07/08 06:59:08;;;;;;;7.70;5.57;;;;;;;;;;5099417;28;20471;-74
2023/07/08 07:01:36;;;;;;;7.43;5.50;;;;;;;;;;5094869;28;20474;-72
2023/07/08 07:04:03;;;;;;;7.33;5.03;;;;;;;;;;5093647;28;20502;-73
2023/07/08 07:06:30;;;;;;;6.43;5.63;;;;;;;;;;5093478;28;20992;-72
2023/07/08 07:08:59;;;;;;;7.80;4.90;;;;;;;;;;5093311;28;20938;-72
2023/07/08 07:11:26;;;;;;;8.37;4.67;;;;;;;;;;5093315;28;20473;-72
2023/07/08 07:13:53;;;;;;;5.43;4.90;;;;;;;;;;5093053;28;20457;-72
2023/07/08 07:16:20;;;;;;;6.40;5.13;;;;;;;;;;5093130;28;20453;-72
2023/07/08 07:18:47;;;;;;;6.10;5.20;;;;;;;;;;5092848;28;20219;-72
2023/07/08 07:21:14;;;;;;;9.23;5.60;;;;;;;;;;5092836;28;20235;-73
2023/07/08 07:23:41;;;;;;;7.07;5.47;;;;;;;;;;5093118;28;20807;-73
2023/07/08 07:26:10;;;;;;;5.83;5.30;;;;;;;;;;5093126;28;20228;-73
2023/07/08 07:28:37;;;;;;;4.50;4.10;;;;;;;;;;5092821;28;20215;-73
2023/07/08 07:31:05;;;;;;;6.73;5.30;;;;;;;;;;5077405;28;20232;-73
2023/07/08 07:33:32;;;;;;;5.23;4.83;;;;;;;;;;5071241;28;20212;-73
2023/07/08 07:36:00;;;;;;;7.10;5.70;;;;;;;;;;5071130;28;20208;-73
2023/07/08 07:38:28;;;;;;;7.13;5.00;;;;;;;;;;5070638;28;20205;-74
2023/07/08 07:40:55;;;;;;;5.70;5.17;;;;;;;;;;5071044;28;20232;-73
2023/07/08 07:43:24;;;;;;;6.40;5.13;;;;;;;;;;5070720;28;20681;-73
2023/07/08 07:45:52;;;;;;;4.93;4.60;;;;;;;;;;5070941;28;20280;-73
2023/07/08 07:48:19;;;;;;;5.33;4.83;;;;;;;;;;5070958;28;20323;-74
2023/07/08 07:50:47;;;;;;;5.27;4.87;;;;;;;;;;5071032;28;20705;-73
2023/07/08 07:53:14;;;;;;;5.57;5.07;;;;;;;;;;5070828;28;20463;-74
2023/07/08 07:55:41;;;;;;;7.60;5.60;;;;;;;;;;5070802;28;20947;-74
2023/07/08 07:58:11;;;;;;;4.60;4.20;;;;;;;;;;5070613;28;20466;-74
2023/07/08 08:00:39;;;;;;;9.20;4.17;;;;;;;;;;5070621;28;20471;-75
2023/07/08 08:03:06;;;;;;;5.80;5.20;;;;;;;;;;5071085;28;20297;-76
2023/07/08 08:05:34;;;;;;;9.73;4.33;;;;;;;;;;5071540;28;20221;-76
2023/07/08 08:08:03;;;;;;;8.53;5.10;;;;;;;;;;5071134;28;20232;-76
2023/07/08 08:10:31;;;;;;;5.47;4.93;;;;;;;;;;5071160;28;20485;-76
2023/07/08 08:12:58;;;;;;;6.43;5.80;;;;;;;;;;5071135;28;20454;-75
2023/07/08 08:15:25;;;;;;;8.00;5.13;;;;;;;;;;5070979;28;20458;-76
2023/07/08 08:17:53;;;;;;;8.03;5.20;;;;;;;;;;5071186;28;20447;-76
2023/07/08 08:20:21;;;;;;;9.30;4.40;;;;;;;;;;5070318;28;20495;-76
2023/07/08 08:22:48;;;;;;;6.63;5.33;;;;;;;;;;5071124;28;20451;-76
2023/07/08 08:25:15;;;;;;;7.13;4.83;;;;;;;;;;5070872;28;20446;-75
2023/07/08 08:27:43;;;;;;;7.33;5.30;;;;;;;;;;5070962;28;20482;-76
2023/07/08 08:30:11;;;;;;;5.63;5.13;;;;;;;;;;5070514;28;20466;-75
2023/07/08 08:32:38;;;;;;;6.73;6.10;;;;;;;;;;5070308;28;20948;-74
2023/07/08 08:35:07;;;;;;;6.13;5.57;;;;;;;;;;5070549;28;20797;-75
2023/07/08 08:37:34;;;;;;;5.03;4.27;;;;;;;;;;5070731;28;20455;-76
2023/07/08 08:40:01;;;;;;;6.33;5.73;;;;;;;;;;5070935;28;20465;-75
2023/07/08 08:42:29;;;;;;;8.27;6.47;;;;;;;;;;5070577;28;20461;-75
2023/07/08 08:44:58;;;;;;;8.10;6.80;;;;;;;;;;5070763;28;20455;-76
2023/07/08 08:47:31;;;;;;;5.67;5.07;;;;;;;;;;5070582;28;20474;-74
2023/07/08 08:50:01;;;;;;;6.97;5.67;;;;;;;;;;5070465;28;20451;-73
2023/07/08 08:52:29;;;;;;;8.63;6.30;;;;;;;;;;5070370;28;20451;-73
2023/07/08 08:54:56;;;;;;;6.60;5.90;;;;;;;;;;5070590;28;20853;-74
2023/07/08 08:57:30;;;;;;;6.10;4.90;;;;;;;;;;5069973;28;20883;-73
2023/07/08 08:59:57;;;;;;;6.30;5.70;;;;;;;;;;5070058;28;20462;-73
2023/07/08 09:02:31;;;;;;;7.33;6.63;;;;;;;;;;5070138;28;20463;-73
2023/07/08 09:05:00;;;;;;;6.47;5.87;;;;;;;;;;5069037;28;20467;-73
2023/07/08 09:07:27;;;;;;;10.53;5.97;;;;;;;;;;5069680;28;20498;-73
2023/07/08 09:10:02;;;;;;;6.10;5.50;;;;;;;;;;5070250;28;20959;-73
2023/07/08 09:12:31;;;;;;;6.67;5.20;;;;;;;;;;5069800;28;20458;-73
2023/07/08 09:14:58;;;;;;;6.50;4.93;;;;;;;;;;5071850;28;20537;-73
2023/07/08 09:17:30;;;;;;;9.23;5.47;;;;;;;;;;5069808;28;20455;-73
2023/07/08 09:20:01;;;;;;;6.13;5.50;;;;;;;;;;5069862;28;20467;-73
2023/07/08 09:22:33;;;;;;;7.33;6.53;;;;;;;;;;5069692;28;20452;-73
2023/07/08 09:25:05;;;;;;;5.10;4.63;;;;;;;;;;5070178;28;20521;-73
2023/07/08 09:31:06;;;;;;;6.80;5.60;;;;;;;;;;5073705;28;21006;-73
2023/07/08 09:33:34;;;;;;;5.97;5.40;;;;;;;;;;5068675;28;20451;-73
2023/07/08 09:36:03;;;;;;;7.77;5.60;;;;;;;;;;5069964;28;20908;-73
2023/07/08 09:38:30;;;;;;;6.83;6.13;;;;;;;;;;5069674;28;20452;-73
2023/07/08 09:40:58;;;;;;;7.27;5.87;;;;;;;;;;5069459;28;20467;-73
2023/07/08 09:43:26;;;;;;;9.70;6.30;;;;;;;;;;5080911;28;20799;-73
2023/07/08 09:45:56;;;;;;;8.10;7.30;;;;;;;;;;5093594;28;20458;-73
2023/07/08 09:48:25;;;;;;;11.93;10.77;;;;;;;;;;5092945;28;20498;-73
2023/07/08 09:50:53;;;;;;;7.10;5.53;;;;;;;;;;5093348;28;20470;-73
2023/07/08 09:53:21;;;;;;;9.53;6.57;;;;;;;;;;5093286;28;20458;-73
2023/07/08 09:55:48;;;;;;;7.53;6.20;;;;;;;;;;5093298;28;20455;-73
2023/07/08 09:58:20;;;;;;;8.67;6.43;;;;;;;;;;5093247;28;20959;-73
2023/07/08 10:00:50;;;;;;;10.40;7.10;;;;;;;;;;5093282;28;20823;-73
2023/07/08 10:03:21;;;;;;;11.77;6.40;;;;;;;;;;5093403;28;20448;-73
2023/07/08 10:05:49;;;;;;;6.83;6.10;;;;;;;;;;5093503;28;20442;-73
2023/07/08 10:08:17;;;;;;;6.63;5.93;;;;;;;;;;5093206;28;20482;-73
2023/07/08 10:10:45;;;;;;;7.87;6.27;;;;;;;;;;5093103;28;20565;-73
2023/07/08 10:13:17;;;;;;;7.80;6.13;;;;;;;;;;5093115;28;20458;-73
2023/07/08 10:15:47;;;;;;;9.00;6.37;;;;;;;;;;5093196;28;20459;-73
2023/07/08 10:18:16;;;;;;;9.47;8.33;;;;;;;;;;5093779;28;20451;-73
2023/07/08 10:20:48;;;;;;;7.17;6.47;;;;;;;;;;5093447;28;20482;-73
2023/07/08 10:23:20;;;;;;;8.30;7.03;;;;;;;;;;5094487;28;20808;-73
2023/07/08 10:25:51;;;;;;;8.87;7.70;;;;;;;;;;5094359;28;20451;-73
2023/07/08 10:28:26;;;;;;;9.20;6.00;;;;;;;;;;5094119;28;20490;-73
2023/07/08 10:31:00;;;;;;;9.77;6.37;;;;;;;;;;5094117;28;20472;-73
2023/07/08 10:33:37;;;;;;;7.00;6.30;;;;;;;;;;5094101;28;20571;-73
2023/07/08 10:36:10;;;;;;;6.87;5.90;;;;;;;;;;5094177;28;20454;-73
2023/07/08 10:38:42;;;;;;;7.33;6.63;;;;;;;;;;5093786;28;20446;-73
2023/07/08 10:41:13;;;;;;;8.70;5.77;;;;;;;;;;5094059;28;20477;-73
2023/07/08 10:43:54;;;;;;;6.80;6.10;;;;;;;;;;5094054;28;20825;-73
2023/07/08 10:46:28;;;;;;;8.73;7.10;;;;;;;;;;5093837;28;20921;-74
2023/07/08 10:49:06;;;;;;;7.73;7.03;;;;;;;;;;5093508;28;20493;-74
2023/07/08 10:51:38;;;;;;;6.20;5.60;;;;;;;;;;5093550;28;20500;-74
2023/07/08 10:54:21;;;;;;;10.20;6.50;;;;;;;;;;5093710;28;20442;-74
2023/07/08 10:56:52;;;;;;;8.20;7.27;;;;;;;;;;5092962;28;20445;-73
2023/07/08 10:59:28;;;;;;;10.40;8.50;;;;;;;;;;5093614;28;20457;-73
2023/07/08 11:02:04;;;;;;;9.93;6.70;;;;;;;;;;5093467;28;20470;-73
2023/07/08 11:04:40;;;;;;;9.53;7.13;;;;;;;;;;5093528;28;20451;-73
2023/07/08 11:07:12;;;;;;;9.70;7.90;;;;;;;;;;5093312;28;20454;-73
2023/07/08 11:09:42;;;;;;;12.50;6.13;;;;;;;;;;5093369;28;20935;-73
2023/07/08 11:12:15;;;;;;;7.00;6.30;;;;;;;;;;5093019;28;20471;-73
2023/07/08 11:14:47;;;;;;;9.33;7.00;;;;;;;;;;5093607;28;20461;-74
2023/07/08 11:17:18;;;;;;;9.13;6.60;;;;;;;;;;5093202;28;20975;-73
2023/07/08 11:19:48;;;;;;;7.03;6.33;;;;;;;;;;5093206;28;20501;-74
2023/07/08 11:22:15;;;;;;;6.40;5.80;;;;;;;;;;5093063;28;21077;-74
2023/07/08 11:24:45;;;;;;;9.93;6.93;;;;;;;;;;5093248;28;20988;-74
2023/07/08 11:27:19;;;;;;;10.00;5.80;;;;;;;;;;5093140;28;20453;-74
2023/07/08 11:29:47;;;;;;;6.97;5.10;;;;;;;;;;5089858;28;20454;-74
2023/07/08 11:32:19;;;;;;;7.57;6.77;;;;;;;;;;5092932;28;20458;-74
2023/07/08 11:34:48;;;;;;;6.93;6.30;;;;;;;;;;5092710;28;20459;-74
2023/07/08 11:37:15;;;;;;;7.27;6.33;;;;;;;;;;5092725;28;20823;-74
2023/07/08 11:39:43;;;;;;;7.17;6.43;;;;;;;;;;5092596;28;20815;-74
2023/07/08 11:42:15;;;;;;;10.07;7.30;;;;;;;;;;5092740;28;20450;-74
2023/07/08 11:44:44;;;;;;;7.43;5.87;;;;;;;;;;5092604;28;20474;-74
2023/07/08 11:47:16;;;;;;;7.00;5.87;;;;;;;;;;5092476;28;20952;-74
2023/07/08 11:49:46;;;;;;;7.90;6.20;;;;;;;;;;5092612;28;20828;-74
2023/07/08 11:52:16;;;;;;;6.70;5.97;;;;;;;;;;5092434;28;20461;-74
2023/07/08 11:54:46;;;;;;;8.83;6.60;;;;;;;;;;5092523;28;20476;-74
2023/07/08 11:57:19;;;;;;;6.97;5.80;;;;;;;;;;5092650;28;20446;-74
2023/07/08 11:59:47;;;;;;;10.50;6.60;;;;;;;;;;5092642;28;20938;-74
2023/07/08 12:02:15;;;;;;;7.23;6.53;;;;;;;;;;5092643;28;20460;-74
2023/07/08 12:04:59;;;;;;;6.63;5.83;;;;;;;;;;5092356;28;20783;-74
2023/07/08 12:07:33;;;;;;;7.17;6.43;;;;;;;;;;5091309;28;20453;-74
2023/07/08 12:10:01;;;;;;;11.57;6.70;;;;;;;;;;5092425;28;20461;-74
2023/07/08 12:12:31;;;;;;;13.30;6.83;;;;;;;;;;5091870;28;20445;-74
2023/07/08 12:15:03;;;;;;;10.03;6.57;;;;;;;;;;5092507;28;20874;-74
2023/07/08 12:17:30;;;;;;;8.03;6.87;;;;;;;;;;5092245;28;20458;-73
2023/07/08 12:19:59;;;;;;;9.47;7.60;;;;;;;;;;5092563;28;20477;-74
2023/07/08 12:22:26;;;;;;;9.73;7.33;;;;;;;;;;5092044;28;20454;-74
2023/07/08 12:24:55;;;;;;;7.27;6.60;;;;;;;;;;5091804;28;20461;-73
2023/07/08 12:27:22;;;;;;;10.70;7.90;;;;;;;;;;5090359;28;20505;-73
2023/07/08 12:29:50;;;;;;;7.40;6.70;;;;;;;;;;5090380;28;20518;-74
2023/07/08 12:32:19;;;;;;;6.60;6.10;;;;;;;;;;5090870;28;20500;-74
2023/07/08 12:34:46;;;;;;;14.23;6.93;;;;;;;;;;5090725;28;20507;-73
2023/07/08 12:37:15;;;;;;;7.63;6.43;;;;;;;;;;5090742;28;20470;-73
2023/07/08 12:39:42;;;;;;;8.70;6.70;;;;;;;;;;5091166;28;20447;-74
2023/07/08 12:42:14;;;;;;;9.80;7.20;;;;;;;;;;5092472;28;20473;-74
2023/07/08 12:44:44;;;;;;;6.60;6.00;;;;;;;;;;5092366;28;20447;-74
2023/07/08 12:47:11;;;;;;;8.00;6.20;;;;;;;;;;5092380;28;20889;-73
2023/07/08 12:49:38;;;;;;;8.37;6.60;;;;;;;;;;5092182;28;20486;-73
2023/07/08 12:52:05;;;;;;;9.00;6.90;;;;;;;;;;5092381;28;20467;-73
2023/07/08 12:54:34;;;;;;;10.93;6.97;;;;;;;;;;5092354;28;20450;-73
2023/07/08 12:57:02;;;;;;;6.30;5.70;;;;;;;;;;5092289;28;20453;-73
2023/07/08 12:59:29;;;;;;;6.80;6.10;;;;;;;;;;5092376;28;20451;-73
2023/07/08 13:01:56;;;;;;;7.10;5.07;;;;;;;;;;5092288;28;20477;-73
2023/07/08 13:04:24;;;;;;;9.50;6.40;;;;;;;;;;5092399;28;20466;-73
2023/07/08 13:06:51;;;;;;;16.30;6.90;;;;;;;;;;5092098;28;20454;-73
2023/07/08 13:09:24;;;;;;;9.40;7.73;;;;;;;;;;5092165;28;20486;-74
2023/07/08 13:11:55;;;;;;;7.47;6.60;;;;;;;;;;5091879;28;20470;-74
2023/07/08 13:14:23;;;;;;;7.43;6.17;;;;;;;;;;5092096;28;20461;-73
2023/07/08 13:16:51;;;;;;;8.00;6.70;;;;;;;;;;5092138;28;20446;-73
2023/07/08 13:19:18;;;;;;;10.80;6.60;;;;;;;;;;5094066;28;20446;-73
2023/07/08 13:21:46;;;;;;;10.10;7.43;;;;;;;;;;5096245;28;20474;-73
2023/07/08 13:24:13;;;;;;;10.90;7.80;;;;;;;;;;5095938;28;20450;-73
2023/07/08 13:26:41;;;;;;;7.90;5.73;;;;;;;;;;5095941;28;20537;-73
2023/07/08 13:29:13;;;;;;;7.10;5.50;;;;;;;;;;5095719;28;20522;-73
2023/07/08 13:31:41;;;;;;;8.23;5.40;;;;;;;;;;5095793;28;20470;-73
2023/07/08 13:34:09;;;;;;;5.97;5.20;;;;;;;;;;5095968;28;20587;-73
2023/07/08 13:36:37;;;;;;;15.13;5.57;;;;;;;;;;5095739;28;20511;-73
2023/07/08 13:39:06;;;;;;;7.63;6.93;;;;;;;;;;5095765;28;20443;-73
2023/07/08 13:41:33;;;;;;;7.10;5.70;;;;;;;;;;5095432;28;20466;-73
2023/07/08 13:44:05;;;;;;;8.07;5.70;;;;;;;;;;5095671;28;20462;-73
2023/07/08 13:46:35;;;;;;;8.07;5.70;;;;;;;;;;5095558;28;20451;-73
2023/07/08 13:49:03;;;;;;;7.60;5.90;;;;;;;;;;5095260;28;20482;-73
2023/07/08 13:51:32;;;;;;;7.40;5.40;;;;;;;;;;5095325;28;20561;-73
2023/07/08 13:54:00;;;;;;;9.73;5.90;;;;;;;;;;5095621;28;20453;-73
2023/07/08 13:56:29;;;;;;;7.23;5.00;;;;;;;;;;5095314;28;20454;-73
2023/07/08 13:59:02;;;;;;;9.73;6.53;;;;;;;;;;5095270;28;20450;-73
2023/07/08 14:01:31;;;;;;;10.60;7.60;;;;;;;;;;5095247;28;20473;-73
2023/07/08 14:04:02;;;;;;;6.43;5.37;;;;;;;;;;5095434;28;20454;-73
2023/07/08 14:06:30;;;;;;;6.10;5.27;;;;;;;;;;5095676;28;20453;-73
2023/07/08 14:08:58;;;;;;;10.47;5.47;;;;;;;;;;5095043;28;20490;-73
2023/07/08 14:11:26;;;;;;;9.30;5.43;;;;;;;;;;5095396;28;20502;-73
2023/07/08 14:13:53;;;;;;;8.40;5.07;;;;;;;;;;5094961;28;20545;-73
2023/07/08 14:16:25;;;;;;;6.23;5.37;;;;;;;;;;5095462;28;20807;-73
2023/07/08 14:18:52;;;;;;;12.30;5.30;;;;;;;;;;5095584;28;20844;-74
2023/07/08 14:21:21;;;;;;;6.43;4.50;;;;;;;;;;5095280;28;20551;-73
2023/07/08 14:23:48;;;;;;;8.00;5.50;;;;;;;;;;5095317;28;20481;-73
2023/07/08 14:26:16;;;;;;;8.13;6.17;;;;;;;;;;5095766;28;20844;-74
2023/07/08 14:28:43;;;;;;;5.90;5.07;;;;;;;;;;5095123;28;20904;-73
2023/07/08 14:31:11;;;;;;;5.07;4.57;;;;;;;;;;5094071;28;20479;-74
2023/07/08 14:33:38;;;;;;;5.97;5.37;;;;;;;;;;5095446;28;20508;-73
2023/07/08 14:36:08;;;;;;;6.60;5.33;;;;;;;;;;5094845;28;20457;-73
2023/07/08 14:38:37;;;;;;;8.40;4.80;;;;;;;;;;5094909;28;20478;-73
2023/07/08 14:41:05;;;;;;;6.40;4.90;;;;;;;;;;5094855;28;20473;-73
2023/07/08 14:43:33;;;;;;;7.13;5.07;;;;;;;;;;5094997;28;20998;-73
2023/07/08 14:46:01;;;;;;;5.90;5.23;;;;;;;;;;5094957;28;20486;-74
2023/07/08 14:48:29;;;;;;;6.67;4.70;;;;;;;;;;5094404;28;20486;-73
2023/07/08 14:50:57;;;;;;;8.80;5.83;;;;;;;;;;5094744;28;20520;-73
2023/07/08 14:53:24;;;;;;;6.37;4.63;;;;;;;;;;5094691;28;20454;-73